Terminal Aerodrome Forecast
Issued by NWS Chicago, IL

Home | Current Version | Previous Version | Graphics & Text | Print | Product List | Glossary On
Versions: 1 2 3 4 5 6 7 8 9 10 11 12 13 14 15 16 17 18 19 20 21 22 23 24 25 26 27 28 29 30 31 32 33 34 35 36 37
000
FTUS43 KLOT 220500
TAFRFD
TAF
KRFD 220527Z 2206/2306 10005KT 6SM BR VCSH BKN035 OVC060
     FM220800 17004KT 4SM BR SCT007 BKN040 BKN100
     FM221100 15004KT 3SM BR SCT010 BKN030
     FM221500 24005KT P6SM SCT040 BKN100 PROB30 2220/2222 4SM TSRA
      OVC040CB
     FM222200 16005KT P6SM SCT040 BKN100
     FM230300 06005KT 6SM BR SCT040 BKN250=

USA.gov is the U.S. government's official web portal to all federal, state and local government web resources and services.